Airfield :
LOGIN :

Register | Disclaimer

   EN    FR    IT 

 










Legend :    VFR   Marginal VFR   IFR   Intensive IFR   Very Intensive IFR
Visi :
Ceiling :
>= 8 km
>= 3000ft
5 to 8 km
1000 to 3000 ft
1500m to 5 km
500 to 1000 ft
800 to 1500m
200 to 500 ft
< 800m
< 200 ft
Symbols :   Thunderstorms  Fog  Heavy snow  Heavy precipitations  Wind > 20 kt
SIGMETs :     Misc.  Thunderstorms  Icing  Turbulence  Mountain Waves  Volcanic Ashes







- Airport Elevation : 622 ft
- IATA code : BRS
- Download approach charts


EGGD - Bristol Int.

CURRENT METAR :
  • 160450Z AUTO 29007KT 9999 SCT034 BKN040 02/01 Q1016

EXPIRED METARs :
  • 160420Z AUTO 28007KT 9999 SCT031 OVC047 02/01 Q1016
  • 160350Z AUTO 27009KT 9999 OVC046 02/01 Q1015
  • 160320Z AUTO 27009KT 9999 NCD 02/00 Q1015
  • 160250Z AUTO 27009KT 9999 NCD 01/M00 Q1015
  • 160220Z AUTO 28007KT 9999 NCD 01/M01 Q1014

TAF TAF EGGD
Valid from the 16 at 00:00 until the 17 at 00:00 UTC


152304Z 1600/1624 30008KT 9999 FEW020
PROB30
TEMPO 1614/1620 29015G25KT 8000 -SHRA BKN014
PROB30
TEMPO 1620/1624 BKN012
ATIS : +44 1275 473 666
No reported NOTAMs for that airfield.



MET'MAP, your aeronautical weather chart ! - Copyright ORBIFLY December 2007 - Disclaimer

ORBIFLY MET'MAP TEAM :

Programming & Development : Alexandra Zaïnal
Concept & Development : Baudouin d'Aumeries
Co-Development & Prog : Marc-Olivier Méhu
Technical & hardware support : Manuel Goepfert

Contact : metmap@orbifly.com




SOURCES & CREDITS :

   NOAA